Ana Sayfa
METAR-TAF:

METAR-TAF

Havaalanları :

Boulder City, Nevada, Amerika Birleşik Devletleri

Enlem: 35-56-50N, Boylam: 114-51-37W, yükseklik: 671 m

Güncel hava durumu gözlemi

Rapor saat 07:55 UTC de 18 dakika önce yapıldı.
Rüzgar kuzey/kuzeydoğudan 6 kt
Sıcaklık 10°C
Nem 71%
Basınç 1014 hPa
Görüş mesafesi: 16.1 km
Açık gökyüzü

METAR: KBVU 140755Z AUTO 03006KT 10SM CLR 10/05 A2993 RMK AO2

Saat: 00:13 (08:13 UTC)


TAF: eksik

4.000'den fazla havaalanı için hava durumu gözlemleri ve tahminleri (METAR ve TAF raporları).

Kullanılabilir istasyonlar harita üzerinde sarı ve kırmızı noktalarla gösterilir.

İstasyonun adını görmek için fareyi noktanın üzerinde gezdirin.

Sonrasında hava gözlem ve tahminlerini görmek için tıklayın.

Haritayı değiştirmek için: yaklaştırmak için siyah artı işaretli yeşil düğmeye ve uzaklaştırmak için de eksi işaretli düğmeye hızla tıklayın; bitişik haritalar için yeşil okları kullanın.


METAR-TAF: